sensor_id;sensor_type;location;lat;lon;timestamp;temperature;humidity
61374;DHT22;47242;48.158;-1.586;2022-12-07T05:30:15;3.20;75.60
61374;DHT22;47242;48.158;-1.586;2022-12-07T05:32:41;3.20;75.40
61374;DHT22;47242;48.158;-1.586;2022-12-07T05:35:06;3.20;75.50
61374;DHT22;47242;48.158;-1.586;2022-12-07T05:37:32;3.20;75.60
61374;DHT22;47242;48.158;-1.586;2022-12-07T05:39:58;3.30;75.70
61374;DHT22;47242;48.158;-1.586;2022-12-07T05:42:24;3.30;75.50
61374;DHT22;47242;48.158;-1.586;2022-12-07T05:44:49;3.30;75.40
61374;DHT22;47242;48.158;-1.586;2022-12-07T05:47:15;3.30;75.60
61374;DHT22;47242;48.158;-1.586;2022-12-07T05:49:41;3.20;75.90
61374;DHT22;47242;48.158;-1.586;2022-12-07T05:52:07;3.20;75.90
61374;DHT22;47242;48.158;-1.586;2022-12-07T05:54:33;3.20;76.00
61374;DHT22;47242;48.158;-1.586;2022-12-07T05:56:59;3.20;75.70
61374;DHT22;47242;48.158;-1.586;2022-12-07T05:59:25;3.20;75.70
61374;DHT22;47242;48.158;-1.586;2022-12-07T06:01:56;3.20;75.40
61374;DHT22;47242;48.158;-1.586;2022-12-07T06:04:23;3.20;75.40
61374;DHT22;47242;48.158;-1.586;2022-12-07T06:06:50;3.30;75.40
61374;DHT22;47242;48.158;-1.586;2022-12-07T06:09:16;3.20;75.30
61374;DHT22;47242;48.158;-1.586;2022-12-07T06:11:44;3.20;75.70
61374;DHT22;47242;48.158;-1.586;2022-12-07T06:14:28;3.20;75.80
61374;DHT22;47242;48.158;-1.586;2022-12-07T06:16:54;3.20;75.70
61374;DHT22;47242;48.158;-1.586;2022-12-07T06:19:20;3.30;75.70
61374;DHT22;47242;48.158;-1.586;2022-12-07T06:21:46;3.20;75.70
61374;DHT22;47242;48.158;-1.586;2022-12-07T06:24:15;3.20;75.70
61374;DHT22;47242;48.158;-1.586;2022-12-07T06:26:41;3.20;76.00
61374;DHT22;47242;48.158;-1.586;2022-12-07T06:29:08;3.20;75.80
61374;DHT22;47242;48.158;-1.586;2022-12-07T06:31:34;3.20;75.90
61374;DHT22;47242;48.158;-1.586;2022-12-07T06:34:02;3.20;76.10
61374;DHT22;47242;48.158;-1.586;2022-12-07T06:36:28;3.20;76.20
61374;DHT22;47242;48.158;-1.586;2022-12-07T06:38:54;3.20;76.10
61374;DHT22;47242;48.158;-1.586;2022-12-07T06:41:21;3.20;76.20
61374;DHT22;47242;48.158;-1.586;2022-12-07T06:43:46;3.20;75.90
61374;DHT22;47242;48.158;-1.586;2022-12-07T06:46:13;3.20;76.20
61374;DHT22;47242;48.158;-1.586;2022-12-07T06:48:39;3.20;76.10
61374;DHT22;47242;48.158;-1.586;2022-12-07T06:51:05;3.20;76.10
61374;DHT22;47242;48.158;-1.586;2022-12-07T06:53:31;3.10;76.50
61374;DHT22;47242;48.158;-1.586;2022-12-07T06:55:58;3.00;76.60
61374;DHT22;47242;48.158;-1.586;2022-12-07T06:58:24;2.90;76.80
61374;DHT22;47242;48.158;-1.586;2022-12-07T07:00:50;2.90;77.50
61374;DHT22;47242;48.158;-1.586;2022-12-07T07:03:16;2.80;77.20
61374;DHT22;47242;48.158;-1.586;2022-12-07T07:05:43;2.70;77.70
61374;DHT22;47242;48.158;-1.586;2022-12-07T07:08:09;2.70;77.60
61374;DHT22;47242;48.158;-1.586;2022-12-07T07:10:35;2.60;77.80
61374;DHT22;47242;48.158;-1.586;2022-12-07T07:13:08;2.40;78.10
61374;DHT22;47242;48.158;-1.586;2022-12-07T07:15:34;2.40;78.70
61374;DHT22;47242;48.158;-1.586;2022-12-07T07:18:00;2.40;78.70
61374;DHT22;47242;48.158;-1.586;2022-12-07T07:20:26;2.60;78.50
61374;DHT22;47242;48.158;-1.586;2022-12-07T07:22:55;2.70;78.00
61374;DHT22;47242;48.158;-1.586;2022-12-07T07:25:21;2.80;77.90
61374;DHT22;47242;48.158;-1.586;2022-12-07T07:27:47;2.90;77.70
61374;DHT22;47242;48.158;-1.586;2022-12-07T07:30:13;3.00;77.50
61374;DHT22;47242;48.158;-1.586;2022-12-07T07:32:41;3.00;77.20
61374;DHT22;47242;48.158;-1.586;2022-12-07T07:35:07;3.10;76.90
61374;DHT22;47242;48.158;-1.586;2022-12-07T07:37:32;3.20;76.70
61374;DHT22;47242;48.158;-1.586;2022-12-07T07:39:58;3.20;76.70
61374;DHT22;47242;48.158;-1.586;2022-12-07T07:42:23;3.20;76.50
61374;DHT22;47242;48.158;-1.586;2022-12-07T07:44:49;3.20;76.60
61374;DHT22;47242;48.158;-1.586;2022-12-07T07:47:15;3.20;76.30
61374;DHT22;47242;48.158;-1.586;2022-12-07T07:49:41;3.20;76.40
61374;DHT22;47242;48.158;-1.586;2022-12-07T07:52:06;3.20;76.50
61374;DHT22;47242;48.158;-1.586;2022-12-07T07:54:32;3.20;76.40
61374;DHT22;47242;48.158;-1.586;2022-12-07T07:56:58;3.20;76.30
61374;DHT22;47242;48.158;-1.586;2022-12-07T07:59:24;3.20;76.20
61374;DHT22;47242;48.158;-1.586;2022-12-07T08:01:50;3.20;76.30
61374;DHT22;47242;48.158;-1.586;2022-12-07T08:04:16;3.20;76.30
61374;DHT22;47242;48.158;-1.586;2022-12-07T08:06:41;3.20;76.40
61374;DHT22;47242;48.158;-1.586;2022-12-07T08:09:08;3.20;76.30
61374;DHT22;47242;48.158;-1.586;2022-12-07T08:11:34;3.20;76.20
61374;DHT22;47242;48.158;-1.586;2022-12-07T08:14:00;3.20;76.30
61374;DHT22;47242;48.158;-1.586;2022-12-07T08:16:26;3.20;76.30
61374;DHT22;47242;48.158;-1.586;2022-12-07T08:18:52;3.30;76.30
61374;DHT22;47242;48.158;-1.586;2022-12-07T08:21:17;3.30;76.30
61374;DHT22;47242;48.158;-1.586;2022-12-07T08:23:43;3.40;76.20
61374;DHT22;47242;48.158;-1.586;2022-12-07T08:26:10;3.50;76.10
61374;DHT22;47242;48.158;-1.586;2022-12-07T08:28:37;3.50;76.20
61374;DHT22;47242;48.158;-1.586;2022-12-07T08:31:11;3.50;76.10
61374;DHT22;47242;48.158;-1.586;2022-12-07T08:33:38;3.50;76.20
61374;DHT22;47242;48.158;-1.586;2022-12-07T08:36:06;3.50;76.20
61374;DHT22;47242;48.158;-1.586;2022-12-07T08:38:33;3.50;76.40
61374;DHT22;47242;48.158;-1.586;2022-12-07T08:40:59;3.70;76.30
61374;DHT22;47242;48.158;-1.586;2022-12-07T08:43:25;3.60;76.60
61374;DHT22;47242;48.158;-1.586;2022-12-07T08:48:31;3.70;76.10
61374;DHT22;47242;48.158;-1.586;2022-12-07T08:50:58;3.80;75.80
61374;DHT22;47242;48.158;-1.586;2022-12-07T08:53:23;3.70;75.60
61374;DHT22;47242;48.158;-1.586;2022-12-07T08:55:49;3.60;76.60
61374;DHT22;47242;48.158;-1.586;2022-12-07T08:58:15;3.50;76.50
61374;DHT22;47242;48.158;-1.586;2022-12-07T09:00:41;3.30;76.40
61374;DHT22;47242;48.158;-1.586;2022-12-07T09:03:07;3.20;77.30
61374;DHT22;47242;48.158;-1.586;2022-12-07T09:05:33;3.40;77.30
61374;DHT22;47242;48.158;-1.586;2022-12-07T09:08:01;3.40;77.40
61374;DHT22;47242;48.158;-1.586;2022-12-07T09:10:28;3.40;77.20
61374;DHT22;47242;48.158;-1.586;2022-12-07T09:12:54;3.30;77.00
61374;DHT22;47242;48.158;-1.586;2022-12-07T09:15:19;3.40;77.20
61374;DHT22;47242;48.158;-1.586;2022-12-07T09:17:45;3.50;77.10
61374;DHT22;47242;48.158;-1.586;2022-12-07T09:20:11;3.70;77.00
61374;DHT22;47242;48.158;-1.586;2022-12-07T09:22:37;3.70;76.90
61374;DHT22;47242;48.158;-1.586;2022-12-07T09:25:04;3.70;76.50
61374;DHT22;47242;48.158;-1.586;2022-12-07T09:27:30;3.70;76.40
61374;DHT22;47242;48.158;-1.586;2022-12-07T09:29:55;3.60;76.30
61374;DHT22;47242;48.158;-1.586;2022-12-07T09:32:21;3.60;77.00
61374;DHT22;47242;48.158;-1.586;2022-12-07T09:34:47;3.60;76.80
61374;DHT22;47242;48.158;-1.586;2022-12-07T09:37:13;3.70;76.60
61374;DHT22;47242;48.158;-1.586;2022-12-07T09:39:39;3.70;76.60
61374;DHT22;47242;48.158;-1.586;2022-12-07T09:42:06;3.70;76.40
61374;DHT22;47242;48.158;-1.586;2022-12-07T09:44:33;3.50;76.40
61374;DHT22;47242;48.158;-1.586;2022-12-07T09:47:00;3.20;76.90
61374;DHT22;47242;48.158;-1.586;2022-12-07T09:49:29;3.20;77.80
61374;DHT22;47242;48.158;-1.586;2022-12-07T09:52:20;3.40;77.50
61374;DHT22;47242;48.158;-1.586;2022-12-07T09:54:49;3.60;77.50
61374;DHT22;47242;48.158;-1.586;2022-12-07T09:57:16;3.70;77.10
61374;DHT22;47242;48.158;-1.586;2022-12-07T09:59:42;3.80;76.80
61374;DHT22;47242;48.158;-1.586;2022-12-07T10:02:40;3.80;76.80
61374;DHT22;47242;48.158;-1.586;2022-12-07T10:05:28;3.80;76.90
61374;DHT22;47242;48.158;-1.586;2022-12-07T10:07:55;3.80;76.70
61374;DHT22;47242;48.158;-1.586;2022-12-07T10:10:31;3.80;77.00
61374;DHT22;47242;48.158;-1.586;2022-12-07T10:13:07;3.80;76.70
61374;DHT22;47242;48.158;-1.586;2022-12-07T10:18:46;3.80;76.70
61374;DHT22;47242;48.158;-1.586;2022-12-07T10:21:18;3.70;76.90
61374;DHT22;47242;48.158;-1.586;2022-12-07T10:26:40;3.60;77.80
61374;DHT22;47242;48.158;-1.586;2022-12-07T10:29:21;3.40;77.70
61374;DHT22;47242;48.158;-1.586;2022-12-07T10:31:59;3.50;78.30
61374;DHT22;47242;48.158;-1.586;2022-12-07T10:39:55;3.70;77.80
61374;DHT22;47242;48.158;-1.586;2022-12-07T10:42:29;3.50;78.10
61374;DHT22;47242;48.158;-1.586;2022-12-07T10:45:16;3.50;78.80
61374;DHT22;47242;48.158;-1.586;2022-12-07T10:48:11;3.70;78.80
61374;DHT22;47242;48.158;-1.586;2022-12-07T10:58:54;4.00;78.00
61374;DHT22;47242;48.158;-1.586;2022-12-07T11:01:44;4.10;78.20
61374;DHT22;47242;48.158;-1.586;2022-12-07T11:07:23;4.20;78.20
61374;DHT22;47242;48.158;-1.586;2022-12-07T11:17:49;4.20;77.80
61374;DHT22;47242;48.158;-1.586;2022-12-07T11:20:39;4.30;77.40
61374;DHT22;47242;48.158;-1.586;2022-12-07T11:23:16;4.30;77.70
61374;DHT22;47242;48.158;-1.586;2022-12-07T11:36:50;4.50;78.00
61374;DHT22;47242;48.158;-1.586;2022-12-07T11:39:29;4.50;78.30
61374;DHT22;47242;48.158;-1.586;2022-12-07T11:42:25;4.40;78.00
61374;DHT22;47242;48.158;-1.586;2022-12-07T11:44:56;4.60;78.50
61374;DHT22;47242;48.158;-1.586;2022-12-07T11:47:35;4.70;78.60
61374;DHT22;47242;48.158;-1.586;2022-12-07T11:50:25;4.80;78.30
61374;DHT22;47242;48.158;-1.586;2022-12-07T11:52:57;4.90;78.00
61374;DHT22;47242;48.158;-1.586;2022-12-07T11:55:40;4.90;77.60
61374;DHT22;47242;48.158;-1.586;2022-12-07T12:04:02;5.00;77.30
61374;DHT22;47242;48.158;-1.586;2022-12-07T12:06:31;4.70;77.50
61374;DHT22;47242;48.158;-1.586;2022-12-07T12:09:01;4.60;78.40
61374;DHT22;47242;48.158;-1.586;2022-12-07T12:20:01;4.30;79.10
61374;DHT22;47242;48.158;-1.586;2022-12-07T12:22:38;4.40;79.80
61374;DHT22;47242;48.158;-1.586;2022-12-07T12:25:07;4.60;79.40
61374;DHT22;47242;48.158;-1.586;2022-12-07T12:27:39;4.80;79.10
61374;DHT22;47242;48.158;-1.586;2022-12-07T12:30:07;4.80;78.70
61374;DHT22;47242;48.158;-1.586;2022-12-07T12:32:49;4.70;78.40
61374;DHT22;47242;48.158;-1.586;2022-12-07T12:38:25;4.70;79.10
61374;DHT22;47242;48.158;-1.586;2022-12-07T12:40:53;4.80;79.10
61374;DHT22;47242;48.158;-1.586;2022-12-07T12:43:48;5.00;78.70
61374;DHT22;47242;48.158;-1.586;2022-12-07T12:49:37;5.00;78.50
61374;DHT22;47242;48.158;-1.586;2022-12-07T12:55:14;5.00;78.30
61374;DHT22;47242;48.158;-1.586;2022-12-07T12:57:44;5.00;78.90
61374;DHT22;47242;48.158;-1.586;2022-12-07T13:00:21;5.10;78.90
61374;DHT22;47242;48.158;-1.586;2022-12-07T13:02:53;5.10;78.50
61374;DHT22;47242;48.158;-1.586;2022-12-07T13:05:22;5.20;78.90
61374;DHT22;47242;48.158;-1.586;2022-12-07T13:10:34;5.20;78.40
61374;DHT22;47242;48.158;-1.586;2022-12-07T13:15:49;5.40;78.00
61374;DHT22;47242;48.158;-1.586;2022-12-07T13:26:35;5.50;78.50
61374;DHT22;47242;48.158;-1.586;2022-12-07T13:29:16;5.60;78.50
61374;DHT22;47242;48.158;-1.586;2022-12-07T13:31:45;5.60;78.20
61374;DHT22;47242;48.158;-1.586;2022-12-07T13:34:31;5.50;78.20
61374;DHT22;47242;48.158;-1.586;2022-12-07T13:37:02;5.40;78.50
61374;DHT22;47242;48.158;-1.586;2022-12-07T13:39:33;5.50;78.20
61374;DHT22;47242;48.158;-1.586;2022-12-07T13:42:15;5.50;78.60
61374;DHT22;47242;48.158;-1.586;2022-12-07T13:44:44;5.50;78.50
61374;DHT22;47242;48.158;-1.586;2022-12-07T13:47:16;5.50;78.30
61374;DHT22;47242;48.158;-1.586;2022-12-07T13:49:51;5.60;78.10
61374;DHT22;47242;48.158;-1.586;2022-12-07T13:52:19;5.60;78.20
61374;DHT22;47242;48.158;-1.586;2022-12-07T13:54:57;5.60;78.40
61374;DHT22;47242;48.158;-1.586;2022-12-07T13:57:25;5.60;78.70
61374;DHT22;47242;48.158;-1.586;2022-12-07T13:59:52;5.70;78.30
61374;DHT22;47242;48.158;-1.586;2022-12-07T14:02:27;5.70;78.00
61374;DHT22;47242;48.158;-1.586;2022-12-07T14:05:07;5.70;78.10
61374;DHT22;47242;48.158;-1.586;2022-12-07T14:07:33;5.70;78.30
61374;DHT22;47242;48.158;-1.586;2022-12-07T14:10:04;5.80;78.00
61374;DHT22;47242;48.158;-1.586;2022-12-07T14:12:32;5.80;78.30
61374;DHT22;47242;48.158;-1.586;2022-12-07T14:14:59;5.80;78.60
61374;DHT22;47242;48.158;-1.586;2022-12-07T14:17:27;5.80;78.80
61374;DHT22;47242;48.158;-1.586;2022-12-07T14:19:56;5.80;78.70
61374;DHT22;47242;48.158;-1.586;2022-12-07T14:22:31;5.80;78.70
61374;DHT22;47242;48.158;-1.586;2022-12-07T14:27:57;5.90;78.50
61374;DHT22;47242;48.158;-1.586;2022-12-07T14:30:26;5.90;78.30
61374;DHT22;47242;48.158;-1.586;2022-12-07T14:33:03;5.90;78.40
61374;DHT22;47242;48.158;-1.586;2022-12-07T14:35:31;6.00;78.30
61374;DHT22;47242;48.158;-1.586;2022-12-07T14:37:57;6.00;78.20
61374;DHT22;47242;48.158;-1.586;2022-12-07T14:40:27;6.00;78.10
61374;DHT22;47242;48.158;-1.586;2022-12-07T14:42:57;6.00;78.00
61374;DHT22;47242;48.158;-1.586;2022-12-07T14:45:25;6.00;78.30
61374;DHT22;47242;48.158;-1.586;2022-12-07T14:47:51;6.00;78.40
61374;DHT22;47242;48.158;-1.586;2022-12-07T14:50:19;6.10;78.20
61374;DHT22;47242;48.158;-1.586;2022-12-07T14:52:59;6.10;78.40
61374;DHT22;47242;48.158;-1.586;2022-12-07T14:55:29;6.10;78.40
61374;DHT22;47242;48.158;-1.586;2022-12-07T14:57:55;6.20;78.60
61374;DHT22;47242;48.158;-1.586;2022-12-07T15:00:23;6.20;78.40
61374;DHT22;47242;48.158;-1.586;2022-12-07T15:02:50;6.20;78.50
61374;DHT22;47242;48.158;-1.586;2022-12-07T15:05:16;6.20;78.20
61374;DHT22;47242;48.158;-1.586;2022-12-07T15:07:41;6.20;78.30
61374;DHT22;47242;48.158;-1.586;2022-12-07T15:12:40;6.20;78.40
61374;DHT22;47242;48.158;-1.586;2022-12-07T15:15:06;6.20;78.30
61374;DHT22;47242;48.158;-1.586;2022-12-07T15:17:31;6.20;78.20
61374;DHT22;47242;48.158;-1.586;2022-12-07T15:19:57;6.20;78.40
61374;DHT22;47242;48.158;-1.586;2022-12-07T15:22:23;6.20;78.60
61374;DHT22;47242;48.158;-1.586;2022-12-07T15:24:48;6.20;78.70
61374;DHT22;47242;48.158;-1.586;2022-12-07T15:27:14;6.10;78.70
61374;DHT22;47242;48.158;-1.586;2022-12-07T15:29:40;6.10;79.10
61374;DHT22;47242;48.158;-1.586;2022-12-07T15:32:05;6.10;78.90
61374;DHT22;47242;48.158;-1.586;2022-12-07T15:34:31;6.10;78.90
61374;DHT22;47242;48.158;-1.586;2022-12-07T15:36:57;6.00;78.90
61374;DHT22;47242;48.158;-1.586;2022-12-07T15:39:23;6.00;78.90
61374;DHT22;47242;48.158;-1.586;2022-12-07T15:41:49;5.90;79.00
61374;DHT22;47242;48.158;-1.586;2022-12-07T15:44:14;5.90;79.20
61374;DHT22;47242;48.158;-1.586;2022-12-07T15:46:59;5.90;79.30
61374;DHT22;47242;48.158;-1.586;2022-12-07T15:49:25;5.80;79.20
61374;DHT22;47242;48.158;-1.586;2022-12-07T15:51:51;5.80;79.30
61374;DHT22;47242;48.158;-1.586;2022-12-07T15:54:22;5.70;79.30
61374;DHT22;47242;48.158;-1.586;2022-12-07T15:56:48;5.70;79.30
61374;DHT22;47242;48.158;-1.586;2022-12-07T15:59:15;5.70;79.80
61374;DHT22;47242;48.158;-1.586;2022-12-07T16:01:41;5.60;79.60
61374;DHT22;47242;48.158;-1.586;2022-12-07T16:04:07;5.60;79.70
61374;DHT22;47242;48.158;-1.586;2022-12-07T16:06:33;5.60;79.80
61374;DHT22;47242;48.158;-1.586;2022-12-07T16:08:59;5.50;79.70
61374;DHT22;47242;48.158;-1.586;2022-12-07T16:11:24;5.50;79.80
61374;DHT22;47242;48.158;-1.586;2022-12-07T16:13:50;5.40;79.60
61374;DHT22;47242;48.158;-1.586;2022-12-07T16:16:17;5.30;79.80
61374;DHT22;47242;48.158;-1.586;2022-12-07T16:18:44;5.30;79.70
61374;DHT22;47242;48.158;-1.586;2022-12-07T16:21:10;5.30;79.50
61374;DHT22;47242;48.158;-1.586;2022-12-07T16:23:36;5.20;79.60
61374;DHT22;47242;48.158;-1.586;2022-12-07T16:26:21;5.20;79.60
61374;DHT22;47242;48.158;-1.586;2022-12-07T16:28:51;5.20;79.60
61374;DHT22;47242;48.158;-1.586;2022-12-07T16:31:19;5.20;79.70
61374;DHT22;47242;48.158;-1.586;2022-12-07T16:33:46;5.10;79.60
61374;DHT22;47242;48.158;-1.586;2022-12-07T16:36:13;5.10;79.60
61374;DHT22;47242;48.158;-1.586;2022-12-07T16:38:41;5.00;79.70
61374;DHT22;47242;48.158;-1.586;2022-12-07T16:41:08;5.00;79.70
61374;DHT22;47242;48.158;-1.586;2022-12-07T16:43:34;5.00;79.60
61374;DHT22;47242;48.158;-1.586;2022-12-07T16:46:00;5.00;79.70
61374;DHT22;47242;48.158;-1.586;2022-12-07T16:48:26;4.90;79.80
61374;DHT22;47242;48.158;-1.586;2022-12-07T16:50:52;5.00;79.80
61374;DHT22;47242;48.158;-1.586;2022-12-07T16:53:20;4.90;79.80
61374;DHT22;47242;48.158;-1.586;2022-12-07T16:55:46;4.90;79.60
61374;DHT22;47242;48.158;-1.586;2022-12-07T16:58:13;4.90;79.60
61374;DHT22;47242;48.158;-1.586;2022-12-07T17:00:40;4.90;79.60
61374;DHT22;47242;48.158;-1.586;2022-12-07T17:03:07;4.80;79.80
61374;DHT22;47242;48.158;-1.586;2022-12-07T17:05:33;4.90;79.60
61374;DHT22;47242;48.158;-1.586;2022-12-07T17:07:59;4.80;79.60
61374;DHT22;47242;48.158;-1.586;2022-12-07T17:10:25;4.70;79.60
61374;DHT22;47242;48.158;-1.586;2022-12-07T17:12:51;4.70;79.60
61374;DHT22;47242;48.158;-1.586;2022-12-07T17:15:20;4.70;79.60
61374;DHT22;47242;48.158;-1.586;2022-12-07T17:17:53;4.70;79.40
61374;DHT22;47242;48.158;-1.586;2022-12-07T17:20:20;4.60;79.60
61374;DHT22;47242;48.158;-1.586;2022-12-07T17:22:46;4.60;79.50
61374;DHT22;47242;48.158;-1.586;2022-12-07T17:25:12;4.50;79.40
61374;DHT22;47242;48.158;-1.586;2022-12-07T17:27:38;4.50;79.30
61374;DHT22;47242;48.158;-1.586;2022-12-07T17:30:22;4.50;79.40
61374;DHT22;47242;48.158;-1.586;2022-12-07T17:32:51;4.40;79.30
61374;DHT22;47242;48.158;-1.586;2022-12-07T17:35:16;4.40;79.40
61374;DHT22;47242;48.158;-1.586;2022-12-07T17:37:42;4.30;79.30
61374;DHT22;47242;48.158;-1.586;2022-12-07T17:40:08;4.40;79.40
61374;DHT22;47242;48.158;-1.586;2022-12-07T17:42:34;4.30;79.10
61374;DHT22;47242;48.158;-1.586;2022-12-07T17:45:02;4.30;79.40
61374;DHT22;47242;48.158;-1.586;2022-12-07T17:47:28;4.30;79.50
61374;DHT22;47242;48.158;-1.586;2022-12-07T17:49:53;4.30;79.50
61374;DHT22;47242;48.158;-1.586;2022-12-07T17:52:19;4.40;79.50
61374;DHT22;47242;48.158;-1.586;2022-12-07T17:55:04;4.40;79.50
61374;DHT22;47242;48.158;-1.586;2022-12-07T17:57:29;4.40;79.30
61374;DHT22;47242;48.158;-1.586;2022-12-07T17:59:55;4.30;79.20
61374;DHT22;47242;48.158;-1.586;2022-12-07T18:02:21;4.30;79.40
61374;DHT22;47242;48.158;-1.586;2022-12-07T18:04:50;4.30;79.30
61374;DHT22;47242;48.158;-1.586;2022-12-07T18:07:17;4.30;79.10
61374;DHT22;47242;48.158;-1.586;2022-12-07T18:09:43;4.30;79.20
61374;DHT22;47242;48.158;-1.586;2022-12-07T18:12:08;4.30;79.20
61374;DHT22;47242;48.158;-1.586;2022-12-07T18:14:34;4.30;79.10
61374;DHT22;47242;48.158;-1.586;2022-12-07T18:17:00;4.30;79.00
61374;DHT22;47242;48.158;-1.586;2022-12-07T18:19:26;4.30;79.00
61374;DHT22;47242;48.158;-1.586;2022-12-07T18:21:51;4.30;79.00
61374;DHT22;47242;48.158;-1.586;2022-12-07T18:24:17;4.30;78.90
61374;DHT22;47242;48.158;-1.586;2022-12-07T18:26:44;4.30;78.70
61374;DHT22;47242;48.158;-1.586;2022-12-07T18:29:14;4.20;78.70
61374;DHT22;47242;48.158;-1.586;2022-12-07T18:31:40;4.20;78.70
61374;DHT22;47242;48.158;-1.586;2022-12-07T18:34:08;4.20;78.70
61374;DHT22;47242;48.158;-1.586;2022-12-07T18:36:37;4.20;78.70
61374;DHT22;47242;48.158;-1.586;2022-12-07T18:39:04;4.20;78.70
61374;DHT22;47242;48.158;-1.586;2022-12-07T18:41:30;4.20;78.50
61374;DHT22;47242;48.158;-1.586;2022-12-07T18:43:59;4.20;78.50
61374;DHT22;47242;48.158;-1.586;2022-12-07T18:46:26;4.10;78.50
61374;DHT22;47242;48.158;-1.586;2022-12-07T18:48:51;4.20;78.60
61374;DHT22;47242;48.158;-1.586;2022-12-07T18:51:18;4.10;78.30
61374;DHT22;47242;48.158;-1.586;2022-12-07T18:53:45;4.10;78.40
61374;DHT22;47242;48.158;-1.586;2022-12-07T18:56:19;4.00;78.30
61374;DHT22;47242;48.158;-1.586;2022-12-07T18:58:59;3.90;78.20
61374;DHT22;47242;48.158;-1.586;2022-12-07T19:01:51;3.90;78.50
61374;DHT22;47242;48.158;-1.586;2022-12-07T19:04:17;4.00;78.50
61374;DHT22;47242;48.158;-1.586;2022-12-07T19:06:45;4.00;78.40
61374;DHT22;47242;48.158;-1.586;2022-12-07T19:09:11;3.90;78.40
61374;DHT22;47242;48.158;-1.586;2022-12-07T19:11:37;3.90;78.40
61374;DHT22;47242;48.158;-1.586;2022-12-07T19:16:48;4.00;78.20
61374;DHT22;47242;48.158;-1.586;2022-12-07T19:19:19;3.90;78.20
61374;DHT22;47242;48.158;-1.586;2022-12-07T19:21:46;3.90;78.20
61374;DHT22;47242;48.158;-1.586;2022-12-07T19:24:12;3.90;78.20
61374;DHT22;47242;48.158;-1.586;2022-12-07T19:26:38;3.90;78.20
61374;DHT22;47242;48.158;-1.586;2022-12-07T19:29:03;3.90;78.20
61374;DHT22;47242;48.158;-1.586;2022-12-07T19:31:29;3.90;78.20
61374;DHT22;47242;48.158;-1.586;2022-12-07T19:33:55;3.90;78.00
61374;DHT22;47242;48.158;-1.586;2022-12-07T19:36:21;3.80;78.10
61374;DHT22;47242;48.158;-1.586;2022-12-07T19:38:46;3.80;78.20
61374;DHT22;47242;48.158;-1.586;2022-12-07T19:41:34;3.80;78.30
61374;DHT22;47242;48.158;-1.586;2022-12-07T19:44:03;3.90;78.30
61374;DHT22;47242;48.158;-1.586;2022-12-07T19:46:31;3.90;78.30
61374;DHT22;47242;48.158;-1.586;2022-12-07T19:48:57;3.90;78.30
61374;DHT22;47242;48.158;-1.586;2022-12-07T19:51:23;3.90;78.30
61374;DHT22;47242;48.158;-1.586;2022-12-07T19:53:49;3.80;78.30
61374;DHT22;47242;48.158;-1.586;2022-12-07T19:56:19;3.80;78.40
61374;DHT22;47242;48.158;-1.586;2022-12-07T19:58:45;3.80;78.40
61374;DHT22;47242;48.158;-1.586;2022-12-07T20:01:15;3.80;78.10
61374;DHT22;47242;48.158;-1.586;2022-12-07T20:03:41;3.80;78.40
61374;DHT22;47242;48.158;-1.586;2022-12-07T20:06:13;3.80;78.30
61374;DHT22;47242;48.158;-1.586;2022-12-07T20:08:40;3.80;78.30
61374;DHT22;47242;48.158;-1.586;2022-12-07T20:11:06;3.80;78.30
61374;DHT22;47242;48.158;-1.586;2022-12-07T20:13:51;3.80;78.20
61374;DHT22;47242;48.158;-1.586;2022-12-07T20:16:18;3.70;78.20
61374;DHT22;47242;48.158;-1.586;2022-12-07T20:18:45;3.70;78.40
61374;DHT22;47242;48.158;-1.586;2022-12-07T20:21:11;3.70;78.40
61374;DHT22;47242;48.158;-1.586;2022-12-07T20:23:39;3.70;78.40
61374;DHT22;47242;48.158;-1.586;2022-12-07T20:26:09;3.70;78.50
61374;DHT22;47242;48.158;-1.586;2022-12-07T20:28:35;3.70;78.40
61374;DHT22;47242;48.158;-1.586;2022-12-07T20:31:00;3.70;78.50
61374;DHT22;47242;48.158;-1.586;2022-12-07T20:33:26;3.70;78.70
61374;DHT22;47242;48.158;-1.586;2022-12-07T20:35:58;3.70;78.70
61374;DHT22;47242;48.158;-1.586;2022-12-07T20:38:24;3.70;78.70
61374;DHT22;47242;48.158;-1.586;2022-12-07T20:40:51;3.70;78.60
61374;DHT22;47242;48.158;-1.586;2022-12-07T20:43:17;3.70;78.50
61374;DHT22;47242;48.158;-1.586;2022-12-07T20:45:46;3.70;78.60
61374;DHT22;47242;48.158;-1.586;2022-12-07T20:48:12;3.70;78.70
61374;DHT22;47242;48.158;-1.586;2022-12-07T20:50:38;3.70;78.60
61374;DHT22;47242;48.158;-1.586;2022-12-07T20:53:04;3.70;78.40
61374;DHT22;47242;48.158;-1.586;2022-12-07T20:55:30;3.70;78.80
61374;DHT22;47242;48.158;-1.586;2022-12-07T20:57:56;3.70;78.90
61374;DHT22;47242;48.158;-1.586;2022-12-07T21:00:21;3.70;79.10
61374;DHT22;47242;48.158;-1.586;2022-12-07T21:02:47;3.70;78.90
61374;DHT22;47242;48.158;-1.586;2022-12-07T21:05:13;3.60;79.00
61374;DHT22;47242;48.158;-1.586;2022-12-07T21:07:39;3.70;79.00
61374;DHT22;47242;48.158;-1.586;2022-12-07T21:10:05;3.60;79.00
61374;DHT22;47242;48.158;-1.586;2022-12-07T21:12:34;3.60;78.90
61374;DHT22;47242;48.158;-1.586;2022-12-07T21:15:00;3.60;78.80
61374;DHT22;47242;48.158;-1.586;2022-12-07T21:17:26;3.60;78.90
61374;DHT22;47242;48.158;-1.586;2022-12-07T21:19:52;3.60;78.90
61374;DHT22;47242;48.158;-1.586;2022-12-07T21:22:17;3.60;78.70
61374;DHT22;47242;48.158;-1.586;2022-12-07T21:24:43;3.60;78.80
61374;DHT22;47242;48.158;-1.586;2022-12-07T21:27:09;3.60;78.90
61374;DHT22;47242;48.158;-1.586;2022-12-07T21:29:35;3.60;78.90
61374;DHT22;47242;48.158;-1.586;2022-12-07T21:32:03;3.60;78.90
61374;DHT22;47242;48.158;-1.586;2022-12-07T21:34:30;3.60;78.90
61374;DHT22;47242;48.158;-1.586;2022-12-07T21:36:55;3.60;78.90
61374;DHT22;47242;48.158;-1.586;2022-12-07T21:39:21;3.50;79.00
61374;DHT22;47242;48.158;-1.586;2022-12-07T21:41:47;3.50;79.10
61374;DHT22;47242;48.158;-1.586;2022-12-07T21:44:12;3.50;79.00
61374;DHT22;47242;48.158;-1.586;2022-12-07T21:46:38;3.50;78.90
61374;DHT22;47242;48.158;-1.586;2022-12-07T21:49:11;3.50;78.90
61374;DHT22;47242;48.158;-1.586;2022-12-07T21:51:38;3.50;78.90
61374;DHT22;47242;48.158;-1.586;2022-12-07T21:54:04;3.50;78.90
61374;DHT22;47242;48.158;-1.586;2022-12-07T21:56:41;3.50;78.90
61374;DHT22;47242;48.158;-1.586;2022-12-07T21:59:12;3.40;79.00
61374;DHT22;47242;48.158;-1.586;2022-12-07T22:01:39;3.40;79.10
61374;DHT22;47242;48.158;-1.586;2022-12-07T22:04:11;3.40;79.10
61374;DHT22;47242;48.158;-1.586;2022-12-07T22:06:37;3.50;79.20
61374;DHT22;47242;48.158;-1.586;2022-12-07T22:09:18;3.40;79.10
61374;DHT22;47242;48.158;-1.586;2022-12-07T22:11:45;3.40;79.30
61374;DHT22;47242;48.158;-1.586;2022-12-07T22:14:11;3.40;79.40
61374;DHT22;47242;48.158;-1.586;2022-12-07T22:16:55;3.40;79.50
61374;DHT22;47242;48.158;-1.586;2022-12-07T22:19:22;3.40;79.10
61374;DHT22;47242;48.158;-1.586;2022-12-07T22:21:48;3.40;79.20
61374;DHT22;47242;48.158;-1.586;2022-12-07T22:24:14;3.40;79.00
61374;DHT22;47242;48.158;-1.586;2022-12-07T22:26:43;3.30;79.00
61374;DHT22;47242;48.158;-1.586;2022-12-07T22:29:09;3.40;79.00
